createdAt,value
2022-11-06T00:01:28.122Z,99872.59
2022-11-06T00:03:55.751Z,99873.38
2022-11-06T00:06:42.738Z,99877.69
2022-11-06T00:09:12.753Z,99875.00
2022-11-06T00:11:40.881Z,99878.44
2022-11-06T00:14:08.886Z,99881.00
2022-11-06T00:16:40.453Z,99873.25
2022-11-06T00:19:08.251Z,99884.03
2022-11-06T00:21:36.149Z,99883.81
2022-11-06T00:24:06.129Z,99881.28
2022-11-06T00:26:34.232Z,99892.53
2022-11-06T00:29:02.409Z,99880.44
2022-11-06T00:31:32.127Z,99881.16
2022-11-06T00:34:00.758Z,99875.00
2022-11-06T00:36:32.453Z,99878.50
2022-11-06T00:39:00.215Z,99882.00
2022-11-06T00:41:28.371Z,99875.12
2022-11-06T00:43:58.182Z,99875.12
2022-11-06T00:46:25.911Z,99879.59
2022-11-06T00:48:54.192Z,99880.34
2022-11-06T00:51:29.964Z,99872.44
2022-11-06T00:54:00.307Z,99876.81
2022-11-06T00:56:28.118Z,99883.69
2022-11-06T00:58:55.455Z,99874.13
2022-11-06T01:01:31.316Z,99869.84
2022-11-06T01:04:00.995Z,99879.28
2022-11-06T01:06:31.409Z,99884.56
2022-11-06T01:08:59.278Z,99883.78
2022-11-06T01:12:06.709Z,99879.37
2022-11-06T01:14:28.172Z,99885.59
2022-11-06T01:16:55.500Z,99885.44
2022-11-06T01:19:23.736Z,99889.78
2022-11-06T01:21:53.006Z,99896.72
2022-11-06T01:24:26.329Z,99885.31
2022-11-06T01:27:24.341Z,99884.44
2022-11-06T01:29:41.569Z,99896.63
2022-11-06T01:32:09.458Z,99893.94
2022-11-06T01:34:36.849Z,99888.81
2022-11-06T01:37:04.408Z,99883.59
2022-11-06T01:39:32.026Z,99893.87
2022-11-06T01:41:59.416Z,99884.34
2022-11-06T01:44:36.017Z,99888.72
2022-11-06T01:47:05.656Z,99879.91
2022-11-06T01:49:36.385Z,99884.50
2022-11-06T01:52:09.355Z,99885.25
2022-11-06T01:54:38.966Z,99890.62
2022-11-06T01:57:07.262Z,99884.50
2022-11-06T01:59:36.847Z,99883.69
2022-11-06T02:02:04.866Z,99892.34
2022-11-06T02:04:36.177Z,99894.22
2022-11-06T02:07:04.014Z,99893.16
2022-11-06T02:09:33.354Z,99896.75
2022-11-06T02:12:24.262Z,99900.22
2022-11-06T02:15:13.394Z,99898.56
2022-11-06T02:17:47.900Z,99903.78
2022-11-06T02:20:29.333Z,99897.72
2022-11-06T02:23:02.437Z,99903.78
2022-11-06T02:25:48.716Z,99909.03
2022-11-06T02:28:24.906Z,99909.00
2022-11-06T02:30:53.498Z,99913.28
2022-11-06T02:33:34.491Z,99908.06
2022-11-06T02:36:08.837Z,99904.56
2022-11-06T02:38:45.363Z,99905.41
2022-11-06T02:41:17.095Z,99917.69
2022-11-06T02:43:47.250Z,99926.41
2022-11-06T02:46:37.722Z,99922.88
2022-11-06T02:49:11.060Z,99932.63
2022-11-06T02:51:42.642Z,99929.06
2022-11-06T02:54:10.765Z,99925.59
2022-11-06T02:56:42.166Z,99929.97
2022-11-06T02:59:16.969Z,99935.25
2022-11-06T03:01:48.411Z,99934.31
2022-11-06T03:04:20.335Z,99934.38
2022-11-06T03:07:00.034Z,99946.56
2022-11-06T03:09:29.503Z,99941.34
2022-11-06T03:12:14.822Z,99943.06
2022-11-06T03:14:50.474Z,99947.47
2022-11-06T03:17:24.472Z,99946.59
2022-11-06T03:20:01.653Z,99949.03
2022-11-06T03:22:40.483Z,99948.28
2022-11-06T03:25:18.703Z,99956.88
2022-11-06T03:28:04.420Z,99955.19
2022-11-06T03:30:40.641Z,99958.56
2022-11-06T03:33:18.534Z,99964.72
2022-11-06T03:35:50.701Z,99959.50
2022-11-06T03:38:36.139Z,99960.34
2022-11-06T03:41:11.351Z,99964.69
2022-11-06T03:43:41.168Z,99968.19
2022-11-06T03:46:15.632Z,99970.09
2022-11-06T03:48:48.010Z,99978.66
2022-11-06T03:51:22.582Z,99969.09
2022-11-06T03:54:02.795Z,99972.63
2022-11-06T03:57:01.658Z,99973.44
2022-11-06T03:59:33.891Z,99972.50
2022-11-06T04:02:01.466Z,99984.72
2022-11-06T04:04:46.119Z,99975.16
2022-11-06T04:07:17.459Z,99978.59
2022-11-06T04:10:05.987Z,99983.03
2022-11-06T04:12:53.442Z,99977.78
2022-11-06T04:15:21.715Z,99979.50
2022-11-06T04:17:49.031Z,99981.41
2022-11-06T04:20:39.535Z,99982.22
2022-11-06T04:23:36.721Z,99989.16
2022-11-06T04:26:36.121Z,99985.91
2022-11-06T04:29:12.794Z,99983.28
2022-11-06T04:32:12.657Z,99986.59
2022-11-06T04:34:46.912Z,99983.28
2022-11-06T04:37:32.095Z,99981.44
2022-11-06T04:40:12.615Z,99982.34
2022-11-06T04:42:56.723Z,99983.19
2022-11-06T04:45:31.076Z,99983.19
2022-11-06T04:47:59.741Z,99987.56
2022-11-06T04:50:29.101Z,99991.09
2022-11-06T04:52:56.486Z,99983.16
2022-11-06T04:55:24.107Z,99985.72
2022-11-06T04:57:51.666Z,99989.22
2022-11-06T05:00:19.003Z,99990.19
2022-11-06T05:02:46.338Z,99987.59
2022-11-06T05:05:13.915Z,99986.66
2022-11-06T05:07:41.251Z,99979.81
2022-11-06T05:10:09.681Z,99990.16
2022-11-06T05:12:37.244Z,99987.53
2022-11-06T05:15:04.850Z,99987.56
2022-11-06T05:17:36.297Z,99995.41
2022-11-06T05:20:05.256Z,99991.94
2022-11-06T05:22:51.096Z,99990.19
2022-11-06T05:25:18.652Z,99993.63
2022-11-06T05:27:45.941Z,99995.47
2022-11-06T05:30:13.332Z,100004.16
2022-11-06T05:32:40.867Z,100000.56
2022-11-06T05:35:08.490Z,100010.28
2022-11-06T05:37:35.821Z,99999.75
2022-11-06T05:40:03.674Z,100008.41
2022-11-06T05:42:30.962Z,100011.94
2022-11-06T05:44:58.260Z,100015.41
2022-11-06T05:47:25.813Z,100012.72
2022-11-06T05:49:53.106Z,100021.44
2022-11-06T05:52:20.474Z,100025.72
2022-11-06T05:54:48.037Z,100025.69
2022-11-06T05:57:15.401Z,100029.25
2022-11-06T05:59:42.806Z,100035.28
2022-11-06T06:02:10.706Z,100041.34
2022-11-06T06:04:38.407Z,100047.44
2022-11-06T06:07:05.708Z,100049.16
2022-11-06T06:09:33.021Z,100051.72
2022-11-06T06:12:00.637Z,100057.87
2022-11-06T06:14:27.938Z,100066.66
2022-11-06T06:16:55.230Z,100057.87
2022-11-06T06:19:22.785Z,100061.34
2022-11-06T06:21:50.079Z,100060.59
2022-11-06T06:24:17.519Z,100060.63
2022-11-06T06:26:45.236Z,100064.84
2022-11-06T06:29:12.533Z,100058.72
2022-11-06T06:31:39.873Z,100076.12
2022-11-06T06:34:07.542Z,100067.47
2022-11-06T06:36:34.920Z,100071.78
2022-11-06T06:39:02.219Z,100080.56
2022-11-06T06:41:29.810Z,100087.59
2022-11-06T06:43:57.107Z,100090.94
2022-11-06T06:46:24.434Z,100088.34
2022-11-06T06:48:52.001Z,100098.84
2022-11-06T06:51:23.756Z,100099.75
2022-11-06T06:53:52.034Z,100100.69
2022-11-06T06:56:19.398Z,100098.97
2022-11-06T06:58:46.842Z,100107.53
2022-11-06T07:01:14.629Z,100105.81
2022-11-06T07:03:42.046Z,100111.87
2022-11-06T07:06:09.350Z,100109.34
2022-11-06T07:08:37.259Z,100108.31
2022-11-06T07:11:07.154Z,100107.63
2022-11-06T07:13:36.366Z,100112.81
2022-11-06T07:16:09.140Z,100119.72
2022-11-06T07:18:37.831Z,100120.62
2022-11-06T07:21:09.850Z,100113.66
2022-11-06T07:23:37.197Z,100119.00
2022-11-06T07:26:05.974Z,100119.78
2022-11-06T07:28:33.578Z,100125.81
2022-11-06T07:31:02.540Z,100121.47
2022-11-06T07:33:30.316Z,100111.94
2022-11-06T07:36:05.823Z,100130.22
2022-11-06T07:38:34.927Z,100121.53
2022-11-06T07:41:04.497Z,100134.56
2022-11-06T07:43:32.061Z,100125.88
2022-11-06T07:46:01.649Z,100137.16
2022-11-06T07:48:29.997Z,100134.56
2022-11-06T07:50:57.879Z,100138.03
2022-11-06T07:53:25.526Z,100136.38
2022-11-06T07:55:54.864Z,100131.97
2022-11-06T07:58:23.753Z,100132.81
2022-11-06T08:00:53.312Z,100140.69
2022-11-06T08:03:21.757Z,100132.84
2022-11-06T08:05:49.514Z,100131.09
2022-11-06T08:08:17.078Z,100139.72
2022-11-06T08:10:44.737Z,100137.12
2022-11-06T08:13:13.220Z,100134.53
2022-11-06T08:15:41.331Z,100137.12
2022-11-06T08:18:09.942Z,100138.00
2022-11-06T08:20:39.043Z,100132.78
2022-11-06T08:23:08.599Z,100138.81
2022-11-06T08:25:36.228Z,100140.56
2022-11-06T08:28:03.870Z,100134.56
2022-11-06T08:30:32.056Z,100143.28
2022-11-06T08:33:05.163Z,100135.37
2022-11-06T08:35:34.184Z,100140.59
2022-11-06T08:38:02.377Z,100144.91
2022-11-06T08:40:31.338Z,100143.09
2022-11-06T08:43:00.348Z,100144.91
2022-11-06T08:45:28.186Z,100142.19
2022-11-06T08:47:55.481Z,100137.84
2022-11-06T08:50:22.786Z,100140.44
2022-11-06T08:52:50.339Z,100135.16
2022-11-06T08:55:17.647Z,100140.41
2022-11-06T08:57:44.934Z,100141.25
2022-11-06T09:00:13.134Z,100150.81
2022-11-06T09:02:40.438Z,100144.69
2022-11-06T09:05:08.623Z,100140.34
2022-11-06T09:07:36.210Z,100143.84
2022-11-06T09:10:04.156Z,100148.16
2022-11-06T09:12:31.532Z,100144.66
2022-11-06T09:14:59.119Z,100139.47
2022-11-06T09:17:26.481Z,100131.41
2022-11-06T09:19:53.834Z,100128.78
2022-11-06T09:22:21.430Z,100131.38
2022-11-06T09:25:03.047Z,100131.25
2022-11-06T09:27:31.695Z,100131.19
2022-11-06T09:29:59.042Z,100127.78
2022-11-06T09:32:26.350Z,100135.56
2022-11-06T09:34:53.990Z,100129.34
2022-11-06T09:37:21.309Z,100131.09
2022-11-06T09:39:48.625Z,100124.19
2022-11-06T09:42:29.445Z,100124.16
2022-11-06T09:45:11.851Z,100123.97
2022-11-06T09:47:41.895Z,100128.31
2022-11-06T09:50:16.709Z,100117.66
2022-11-06T09:52:53.652Z,100122.19
2022-11-06T09:55:23.571Z,100129.28
2022-11-06T09:58:05.463Z,100124.75
2022-11-06T10:00:32.785Z,100124.78
2022-11-06T10:03:14.471Z,100120.38
2022-11-06T10:05:43.003Z,100116.09
2022-11-06T10:08:17.438Z,100116.88
2022-11-06T10:11:16.474Z,100112.31
2022-11-06T10:13:44.051Z,100106.94
2022-11-06T10:16:22.606Z,100112.25
2022-11-06T10:19:07.825Z,100106.97
2022-11-06T10:21:49.501Z,100107.63
2022-11-06T10:24:20.094Z,100108.41
2022-11-06T10:26:55.887Z,100109.28
2022-11-06T10:29:49.314Z,100110.06
2022-11-06T10:32:34.773Z,100112.75
2022-11-06T10:35:12.154Z,100104.66
2022-11-06T10:37:48.680Z,100116.03
2022-11-06T10:40:23.407Z,100103.81
2022-11-06T10:43:00.223Z,100103.62
2022-11-06T10:45:28.619Z,100101.87
2022-11-06T10:48:00.175Z,100094.72
2022-11-06T10:50:37.145Z,100094.59
2022-11-06T10:53:09.339Z,100089.38
2022-11-06T10:55:41.997Z,100088.37
2022-11-06T10:58:29.995Z,100086.41
2022-11-06T11:01:01.726Z,100085.44
2022-11-06T11:03:52.354Z,100077.66
2022-11-06T11:06:19.991Z,100068.88
2022-11-06T11:08:49.034Z,100076.22
2022-11-06T11:11:20.546Z,100073.72
2022-11-06T11:14:14.331Z,100067.41
2022-11-06T11:16:45.008Z,100069.88
2022-11-06T11:19:38.298Z,100074.41
2022-11-06T11:22:21.164Z,100075.31
2022-11-06T11:25:02.772Z,100069.22
2022-11-06T11:27:32.339Z,100069.16
2022-11-06T11:30:00.025Z,100071.78
2022-11-06T11:32:29.310Z,100069.12
2022-11-06T11:34:57.368Z,100067.13
2022-11-06T11:37:30.072Z,100076.91
2022-11-06T11:40:29.375Z,100068.13
2022-11-06T11:43:15.957Z,100080.72
2022-11-06T11:45:43.310Z,100073.84
2022-11-06T11:48:14.154Z,100069.22
2022-11-06T11:50:41.730Z,100067.81
2022-11-06T11:53:18.525Z,100068.41
2022-11-06T11:55:48.625Z,100057.69
2022-11-06T11:58:20.862Z,100063.00
2022-11-06T12:00:52.000Z,100062.91
2022-11-06T12:03:20.657Z,100066.59
2022-11-06T12:05:48.105Z,100064.84
2022-11-06T12:08:24.058Z,100063.34
2022-11-06T12:10:51.801Z,100062.59
2022-11-06T12:13:24.019Z,100064.44
2022-11-06T12:16:00.374Z,100062.12
2022-11-06T12:18:34.416Z,100061.00
2022-11-06T12:21:23.240Z,100059.81
2022-11-06T12:23:56.382Z,100065.09
2022-11-06T12:26:40.047Z,100066.12
2022-11-06T12:29:24.767Z,100060.59
2022-11-06T12:31:56.802Z,100058.59
2022-11-06T12:34:35.423Z,100061.41
2022-11-06T12:37:15.192Z,100060.50
2022-11-06T12:39:44.527Z,100063.03
2022-11-06T12:42:12.710Z,100063.16
2022-11-06T12:44:40.120Z,100056.84
2022-11-06T12:47:43.042Z,100068.16
2022-11-06T12:50:46.044Z,100066.19
2022-11-06T12:53:27.584Z,100068.75
2022-11-06T12:56:12.931Z,100065.97
2022-11-06T12:58:45.392Z,100073.84
2022-11-06T13:01:43.992Z,100068.47
2022-11-06T13:04:26.420Z,100067.69
2022-11-06T13:07:13.429Z,100063.34
2022-11-06T13:10:03.804Z,100058.56
2022-11-06T13:12:44.091Z,100067.13
2022-11-06T13:15:22.142Z,100060.03
2022-11-06T13:18:00.520Z,100066.34
2022-11-06T13:20:43.847Z,100067.13
2022-11-06T13:23:29.565Z,100061.00
2022-11-06T13:26:05.527Z,100061.97
2022-11-06T13:28:47.289Z,100058.38
2022-11-06T13:31:17.909Z,100058.25
2022-11-06T13:33:49.456Z,100052.94
2022-11-06T13:36:18.665Z,100051.09
2022-11-06T13:39:21.242Z,100055.53
2022-11-06T13:41:48.661Z,100058.97
2022-11-06T13:44:17.083Z,100052.81
2022-11-06T13:46:56.875Z,100050.13
2022-11-06T13:49:55.920Z,100052.81
2022-11-06T13:52:51.624Z,100054.25
2022-11-06T13:55:36.571Z,100053.72
2022-11-06T13:58:28.289Z,100041.66
2022-11-06T14:01:14.761Z,100046.06
2022-11-06T14:04:12.612Z,100035.66
2022-11-06T14:06:40.816Z,100040.00
2022-11-06T14:09:19.361Z,100037.50
2022-11-06T14:11:53.423Z,100041.09
2022-11-06T14:14:20.863Z,100039.03
2022-11-06T14:17:09.784Z,100037.69
2022-11-06T14:19:37.983Z,100031.53
2022-11-06T14:22:08.345Z,100037.69
2022-11-06T14:24:36.961Z,100031.47
2022-11-06T14:27:08.957Z,100030.81
2022-11-06T14:29:36.116Z,100035.12
2022-11-06T14:32:16.820Z,100039.06
2022-11-06T14:34:44.462Z,100044.16
2022-11-06T14:37:17.773Z,100041.72
2022-11-06T14:39:51.579Z,100050.16
2022-11-06T14:42:30.384Z,100040.87
2022-11-06T14:45:11.936Z,100041.81
2022-11-06T14:47:41.472Z,100052.09
2022-11-06T14:50:18.062Z,100048.66
2022-11-06T14:52:51.038Z,100050.53
2022-11-06T14:55:41.035Z,100055.06
2022-11-06T14:58:18.812Z,100047.06
2022-11-06T15:00:51.180Z,100065.53
2022-11-06T15:03:38.563Z,100054.22
2022-11-06T15:06:17.950Z,100050.87
2022-11-06T15:08:45.189Z,100062.97
2022-11-06T15:11:30.901Z,100060.19
2022-11-06T15:14:06.126Z,100060.50
2022-11-06T15:16:43.457Z,100068.28
2022-11-06T15:19:26.493Z,100066.31
2022-11-06T15:22:12.232Z,100070.84
2022-11-06T15:24:52.485Z,100068.22
2022-11-06T15:27:22.574Z,100070.06
2022-11-06T15:29:52.822Z,100067.53
2022-11-06T15:32:26.312Z,100066.63
2022-11-06T15:35:01.362Z,100066.63
2022-11-06T15:37:37.912Z,100065.88
2022-11-06T15:40:05.853Z,100061.34
2022-11-06T15:42:37.239Z,100074.59
2022-11-06T15:45:12.748Z,100074.59
2022-11-06T15:47:40.536Z,100076.62
2022-11-06T15:50:19.642Z,100069.62
2022-11-06T15:52:48.742Z,100069.56
2022-11-06T15:55:25.658Z,100064.44
2022-11-06T15:57:53.918Z,100067.84
2022-11-06T16:00:24.489Z,100064.28
2022-11-06T16:02:57.790Z,100068.72
2022-11-06T16:05:27.675Z,100067.09
2022-11-06T16:07:56.711Z,100074.09
2022-11-06T16:10:24.416Z,100077.59
2022-11-06T16:12:53.915Z,100068.97
2022-11-06T16:15:49.649Z,100067.25
2022-11-06T16:18:35.703Z,100076.72
2022-11-06T16:21:11.603Z,100074.09
2022-11-06T16:23:45.001Z,100079.25
2022-11-06T16:26:15.856Z,100069.72
2022-11-06T16:28:44.584Z,100068.09
2022-11-06T16:31:18.033Z,100067.97
2022-11-06T16:34:02.470Z,100072.44
2022-11-06T16:36:31.836Z,100075.09
2022-11-06T16:39:17.723Z,100074.25
2022-11-06T16:42:25.641Z,100074.22
2022-11-06T16:45:08.071Z,100077.72
2022-11-06T16:47:35.922Z,100076.00
2022-11-06T16:50:06.929Z,100074.16
2022-11-06T16:52:38.732Z,100078.56
2022-11-06T16:55:17.029Z,100072.38
2022-11-06T16:57:53.442Z,100075.03
2022-11-06T17:00:20.947Z,100072.62
2022-11-06T17:02:54.658Z,100067.28
2022-11-06T17:05:24.515Z,100063.87
2022-11-06T17:08:29.054Z,100069.88
2022-11-06T17:10:57.954Z,100076.75
2022-11-06T17:13:31.642Z,100075.88
2022-11-06T17:16:04.669Z,100071.59
2022-11-06T17:18:34.417Z,100085.47
2022-11-06T17:21:04.950Z,100078.53
2022-11-06T17:23:33.456Z,100077.72
2022-11-06T17:26:06.830Z,100076.00
2022-11-06T17:28:34.401Z,100083.00
2022-11-06T17:31:02.932Z,100083.97
2022-11-06T17:33:30.227Z,100081.44
2022-11-06T17:35:57.843Z,100084.84
2022-11-06T17:38:25.139Z,100081.34
2022-11-06T17:40:52.445Z,100077.78
2022-11-06T17:43:20.039Z,100084.94
2022-11-06T17:45:49.852Z,100085.72
2022-11-06T17:48:18.226Z,100085.03
2022-11-06T17:51:04.510Z,100092.88
2022-11-06T17:53:32.060Z,100094.59
2022-11-06T17:56:03.785Z,100105.16
2022-11-06T17:58:31.290Z,100105.22
2022-11-06T18:01:10.134Z,100109.59
2022-11-06T18:03:43.402Z,100116.53
2022-11-06T18:06:12.014Z,100112.22
2022-11-06T18:08:39.778Z,100123.75
2022-11-06T18:11:07.766Z,100106.28
2022-11-06T18:13:35.430Z,100114.91
2022-11-06T18:16:03.434Z,100116.69
2022-11-06T18:18:31.000Z,100115.03
2022-11-06T18:20:58.479Z,100117.69
2022-11-06T18:23:26.094Z,100118.44
2022-11-06T18:25:57.139Z,100119.28
2022-11-06T18:28:25.200Z,100117.56
2022-11-06T18:30:53.017Z,100129.03
2022-11-06T18:33:20.624Z,100119.50
2022-11-06T18:35:47.935Z,100113.31
2022-11-06T18:38:16.647Z,100118.56
2022-11-06T18:40:50.227Z,100116.78
2022-11-06T18:43:19.195Z,100118.56
2022-11-06T18:45:46.536Z,100121.25
2022-11-06T18:48:18.322Z,100116.97
2022-11-06T18:50:48.935Z,100118.69
2022-11-06T18:53:16.498Z,100118.69
2022-11-06T18:55:45.820Z,100112.53
2022-11-06T18:58:13.874Z,100112.63
2022-11-06T19:00:41.350Z,100123.03
2022-11-06T19:03:08.737Z,100126.56
2022-11-06T19:05:36.341Z,100130.97
2022-11-06T19:08:04.863Z,100123.16
2022-11-06T19:10:32.522Z,100132.72
2022-11-06T19:13:00.129Z,100128.31
2022-11-06T19:15:27.450Z,100125.66
2022-11-06T19:17:54.943Z,100116.97
2022-11-06T19:20:22.703Z,100130.00
2022-11-06T19:22:51.201Z,100118.66
2022-11-06T19:25:19.129Z,100116.91
2022-11-06T19:27:47.244Z,100117.78
2022-11-06T19:30:15.359Z,100114.34
2022-11-06T19:32:43.703Z,100113.53
2022-11-06T19:35:13.712Z,100110.97
2022-11-06T19:37:41.518Z,100108.31
2022-11-06T19:40:09.104Z,100109.25
2022-11-06T19:42:36.991Z,100101.44
2022-11-06T19:45:05.623Z,100105.72
2022-11-06T19:47:33.003Z,100112.72
2022-11-06T19:50:01.583Z,100117.97
2022-11-06T19:52:41.828Z,100122.31
2022-11-06T19:55:26.291Z,100118.94
2022-11-06T19:57:57.827Z,100116.25
2022-11-06T20:00:25.406Z,100124.97
2022-11-06T20:02:52.986Z,100117.19
2022-11-06T20:05:20.705Z,100120.62
2022-11-06T20:07:48.033Z,100123.19
2022-11-06T20:10:15.625Z,100118.06
2022-11-06T20:12:42.975Z,100123.28
2022-11-06T20:15:10.471Z,100118.91
2022-11-06T20:17:38.070Z,100125.88
2022-11-06T20:20:06.075Z,100135.47
2022-11-06T20:22:33.413Z,100134.63
2022-11-06T20:25:01.011Z,100132.88
2022-11-06T20:27:28.555Z,100132.00
2022-11-06T20:29:55.858Z,100136.34
2022-11-06T20:32:23.498Z,100136.41
2022-11-06T20:34:51.518Z,100140.72
2022-11-06T20:37:18.869Z,100137.19
2022-11-06T20:39:46.436Z,100139.78
2022-11-06T20:42:13.769Z,100147.62
2022-11-06T20:44:41.116Z,100155.47
2022-11-06T20:47:08.691Z,100146.75
2022-11-06T20:49:38.865Z,100153.72
2022-11-06T20:52:15.269Z,100152.87
2022-11-06T20:54:47.253Z,100145.91
2022-11-06T20:57:15.962Z,100150.25
2022-11-06T20:59:43.633Z,100146.81
2022-11-06T21:02:11.617Z,100158.09
2022-11-06T21:04:39.075Z,100145.94
2022-11-06T21:07:06.663Z,100150.28
2022-11-06T21:09:34.011Z,100146.78
2022-11-06T21:12:01.350Z,100139.84
2022-11-06T21:14:29.198Z,100141.56
2022-11-06T21:16:57.106Z,100150.28
2022-11-06T21:19:24.650Z,100140.72
2022-11-06T21:21:56.557Z,100157.28
2022-11-06T21:24:24.571Z,100159.03
2022-11-06T21:26:55.091Z,100156.44
2022-11-06T21:29:23.848Z,100154.72
2022-11-06T21:31:51.775Z,100156.41
2022-11-06T21:34:19.495Z,100156.41
2022-11-06T21:36:47.476Z,100149.47
2022-11-06T21:39:17.549Z,100160.78
2022-11-06T21:41:45.461Z,100164.22
2022-11-06T21:44:15.255Z,100159.88
2022-11-06T21:46:45.697Z,100161.63
2022-11-06T21:49:14.944Z,100159.91
2022-11-06T21:51:43.433Z,100162.47
2022-11-06T21:54:30.899Z,100162.44
2022-11-06T21:56:58.706Z,100165.09
2022-11-06T21:59:27.835Z,100166.81
2022-11-06T22:01:55.801Z,100171.16
2022-11-06T22:04:23.564Z,100172.94
2022-11-06T22:06:52.544Z,100177.31
2022-11-06T22:09:24.987Z,100170.31
2022-11-06T22:11:53.644Z,100176.41
2022-11-06T22:14:20.984Z,100173.81
2022-11-06T22:16:51.171Z,100172.94
2022-11-06T22:19:18.805Z,100168.56
2022-11-06T22:21:46.143Z,100179.87
2022-11-06T22:24:14.065Z,100178.16
2022-11-06T22:26:41.685Z,100174.66
2022-11-06T22:29:11.790Z,100175.53
2022-11-06T22:31:39.191Z,100169.47
2022-11-06T22:34:06.779Z,100167.69
2022-11-06T22:36:36.389Z,100161.59
2022-11-06T22:39:05.184Z,100170.28
2022-11-06T22:41:32.777Z,100164.19
2022-11-06T22:44:00.532Z,100166.81
2022-11-06T22:46:28.976Z,100167.72
2022-11-06T22:48:57.303Z,100165.06
2022-11-06T22:51:29.891Z,100172.91
2022-11-06T22:53:58.023Z,100176.41
2022-11-06T22:56:26.881Z,100175.50
2022-11-06T22:58:55.542Z,100162.47
2022-11-06T23:01:24.914Z,100172.03
2022-11-06T23:03:56.672Z,100163.31
2022-11-06T23:06:25.444Z,100168.53
2022-11-06T23:08:53.254Z,100161.53
2022-11-06T23:11:22.089Z,100158.06
2022-11-06T23:13:49.938Z,100158.06
2022-11-06T23:16:40.998Z,100158.94
2022-11-06T23:19:09.723Z,100164.16
2022-11-06T23:21:37.363Z,100158.03
2022-11-06T23:24:05.889Z,100165.87
2022-11-06T23:26:33.674Z,100165.00
2022-11-06T23:29:01.013Z,100161.56
2022-11-06T23:31:28.516Z,100165.87
2022-11-06T23:33:56.312Z,100161.59
2022-11-06T23:36:23.670Z,100172.84
2022-11-06T23:38:53.685Z,100171.09
2022-11-06T23:41:40.081Z,100162.41
2022-11-06T23:44:27.476Z,100167.62
2022-11-06T23:46:55.165Z,100171.97
2022-11-06T23:49:22.799Z,100171.06
2022-11-06T23:51:50.199Z,100171.09
2022-11-06T23:54:17.791Z,100172.84
2022-11-06T23:56:45.104Z,100171.97
2022-11-06T23:59:12.820Z,100171.97
